HKJKHTDA

Guest
Details From HKJK - Nairobi Jomo Kanyatta Intl
To HTDA - Mwalimu Julius K Nyerere Intl
Flight Number -
Tags Generated
Created
Modified
Stats Distance 362 nm / 670 km
Max Altitude 0 ft / 0 m
Waypoints 3
Social Downloads 1
Likes 0
Share VATSIM

Download

Looking for another format? Having issues loading an existing format? Contact us
Advertisement - Login to hide

Notes

Generated

Route

HKJK DR HTDA

ID Type Via Altitude Latitude Longitude Leg Dist Tot Dist Heading (true) Name
O HKJK APT - 0 ft / 0 m -1.32774˚ 36.91612˚ - 0 nm - -
DR NDB - 0 ft / 0 m -6.88528˚ 39.20530˚ 360 nm 360 nm 158° / 158° DAR ES SALAAM NDB
O HTDA APT - 0 ft / 0 m -6.87359˚ 39.19790˚ 0 nm 361 nm 328° / 328° -

Altitude Profile

Advertisement - Login to hide

Weather


0- 5 10 15 20 25 30 35+ Temperature / ° C

Clouds and Precipitation
Forecast for 2017-12-13 18:00 UTC. Updated 2 hours ago

Ground ~20,000 ft ~40,000 ft Winds

HKJK

Details ICAO HKJK (NBO)
Name Nairobi Jomo Kanyatta Intl
Region Kenya
Timezone Africa/Nairobi (UTC+3.0)
Stats Elevation 5,330 ft / 1,625 m (AMSL)
Location -1.317073° 36.930757°
Runways 1
Magnetic Variation 0.575° E

METAR

HKJK 131700Z 05009KT CAVOK 21/11 Q1021 NOSIG

Decode

TAF

TAF HKJK 131100Z 1312/1418 05010KT 9999 FEW026 TEMPO 1312/1318 SCT027 BECMG 1320/1323 03005KT FEW020 TEMPO 1400/1406 CAVOK BECMG 1408/1411 05010KT 9999 FEW025

Decode

Departure Runways

ID Width Length Bearing (true) Bearing (mag) Surface Threshold Offset Overrun Length
06 148 ft / 45 m 13,215 ft / 4,028 m 53.90° 53.32° Asphalt 0 ft / 0 m 194 ft / 59 m
24 148 ft / 45 m 13,215 ft / 4,028 m 233.90° 233.32° Asphalt 0 ft / 0 m 197 ft / 60 m

HTDA

Details ICAO HTDA (DAR)
Name MWALIMU JULIUS K NYERERE INTL
Region Tanzania
Timezone Africa/Dar_es_Salaam (UTC+3.0)
Stats Elevation 182 ft / 55 m (AMSL)
Location -6.875048° 39.204265°
Runways 2
Magnetic Variation 2.128° W

METAR

HTDA 131700Z 03010KT 9999 FEW018 27/24 Q1012 NOSIG

Decode

TAF

TAF HTDA 131100Z 1312/1418 02010KT 9999 BKN023 BECMG 1315/1318 SCT016

Decode

Destination Runways

ID Width Length Bearing (true) Bearing (mag) Surface Threshold Offset Overrun Length
05 151 ft / 46 m 9,868 ft / 3,008 m 44.94° 47.07° Asphalt 0 ft / 0 m 197 ft / 60 m
14 98 ft / 30 m 3,303 ft / 1,007 m 135.15° 137.28° Asphalt 0 ft / 0 m 0 ft / 0 m
23 151 ft / 46 m 9,868 ft / 3,008 m 224.94° 227.07° Asphalt 0 ft / 0 m 197 ft / 60 m
32 98 ft / 30 m 3,303 ft / 1,007 m 315.15° 317.28° Asphalt 0 ft / 0 m 299 ft / 91 m

Approach Navaids

Runway Type Ident Frequency Range Bearing (true) Bearing (mag) Slope Elevation
05 Localiser DL 110.50 MHz 18 nm / 33 km 44.91° 47.04° - 54 ft / 16 m (AMSL)
05 Glidescope DL 110.50 MHz 10 nm / 19 km 44.94° 47.07° 3.00° 54 ft / 16 m (AMSL)

Popular Alternatives